createdAt,value
2023-02-09T00:00:12.304Z,-6.09
2023-02-09T00:02:42.412Z,-6.06
2023-02-09T00:05:10.867Z,-6.15
2023-02-09T00:07:39.490Z,-6.36
2023-02-09T00:10:08.786Z,-6.35
2023-02-09T00:12:56.904Z,-6.45
2023-02-09T00:15:24.731Z,-6.54
2023-02-09T00:17:52.918Z,-6.72
2023-02-09T00:20:21.230Z,-6.59
2023-02-09T00:22:49.795Z,-6.61
2023-02-09T00:25:18.153Z,-6.45
2023-02-09T00:27:46.809Z,-6.51
2023-02-09T00:30:14.903Z,-6.56
2023-02-09T00:32:45.342Z,-6.52
2023-02-09T00:35:13.710Z,-6.68
2023-02-09T00:37:42.256Z,-6.69
2023-02-09T00:40:10.990Z,-6.54
2023-02-09T00:42:39.796Z,-6.58
2023-02-09T00:45:08.448Z,-6.59
2023-02-09T00:47:36.261Z,-6.59
2023-02-09T00:50:07.093Z,-6.70
2023-02-09T00:52:35.764Z,-6.70
2023-02-09T00:55:04.421Z,-6.63
2023-02-09T00:57:33.829Z,-6.45
2023-02-09T01:00:03.718Z,-6.63
2023-02-09T01:02:31.853Z,-6.78
2023-02-09T01:05:00.178Z,-6.77
2023-02-09T01:07:28.865Z,-6.65
2023-02-09T01:09:57.410Z,-6.52
2023-02-09T01:12:27.080Z,-6.55
2023-02-09T01:14:55.530Z,-6.64
2023-02-09T01:17:26.319Z,-6.54
2023-02-09T01:19:56.069Z,-6.76
2023-02-09T01:22:24.084Z,-6.69
2023-02-09T01:24:52.340Z,-6.63
2023-02-09T01:27:21.345Z,-6.73
2023-02-09T01:29:49.431Z,-6.72
2023-02-09T01:32:17.650Z,-6.89
2023-02-09T01:34:45.689Z,-7.21
2023-02-09T01:37:13.645Z,-7.25
2023-02-09T01:39:41.909Z,-7.07
2023-02-09T01:42:21.744Z,-7.08
2023-02-09T01:44:50.667Z,-7.02
2023-02-09T01:47:20.981Z,-7.18
2023-02-09T01:49:52.282Z,-7.00
2023-02-09T01:52:27.074Z,-7.01
2023-02-09T01:54:57.733Z,-6.76
2023-02-09T01:57:38.105Z,-7.07
2023-02-09T02:00:11.275Z,-7.31
2023-02-09T02:02:41.176Z,-7.06
2023-02-09T02:05:09.558Z,-7.20
2023-02-09T02:07:51.091Z,-7.26
2023-02-09T02:10:19.578Z,-7.36
2023-02-09T02:12:47.946Z,-7.41
2023-02-09T02:15:16.665Z,-7.32
2023-02-09T02:17:47.647Z,-7.37
2023-02-09T02:20:42.128Z,-7.39
2023-02-09T02:23:25.976Z,-7.46
2023-02-09T02:26:34.971Z,-7.64
2023-02-09T02:29:22.398Z,-7.41
2023-02-09T02:32:24.636Z,-7.41
2023-02-09T02:35:03.463Z,-7.50
2023-02-09T02:37:51.439Z,-7.54
2023-02-09T02:40:39.133Z,-7.48
2023-02-09T02:43:22.482Z,-7.68
2023-02-09T02:45:59.103Z,-7.70
2023-02-09T02:48:46.238Z,-7.97
2023-02-09T02:52:11.071Z,-7.62
2023-02-09T02:55:18.827Z,-7.44
2023-02-09T02:57:52.202Z,-7.42
2023-02-09T03:00:27.994Z,-7.47
2023-02-09T03:03:00.776Z,-7.29
2023-02-09T03:05:29.741Z,-7.39
2023-02-09T03:07:57.680Z,-7.40
2023-02-09T03:10:35.146Z,-7.49
2023-02-09T03:13:30.995Z,-7.82
2023-02-09T03:16:16.524Z,-7.75
2023-02-09T03:18:57.671Z,-7.46
2023-02-09T03:21:52.904Z,-7.61
2023-02-09T03:24:36.720Z,-7.71
2023-02-09T03:41:08.614Z,-8.01
2023-02-09T03:43:56.558Z,-7.90
2023-02-09T03:46:25.305Z,-8.06
2023-02-09T03:48:53.629Z,-7.78
2023-02-09T03:51:21.788Z,-7.79
2023-02-09T03:53:49.861Z,-8.02
2023-02-09T03:56:18.078Z,-7.97
2023-02-09T04:04:42.517Z,-8.24
2023-02-09T04:07:12.427Z,-8.07
2023-02-09T04:09:42.364Z,-8.05
2023-02-09T04:12:10.407Z,-8.00
2023-02-09T04:14:39.501Z,-7.88
2023-02-09T04:17:07.382Z,-8.03
2023-02-09T04:19:36.232Z,-7.99
2023-02-09T04:22:04.305Z,-8.08
2023-02-09T04:24:33.149Z,-8.16
2023-02-09T04:27:01.297Z,-8.11
2023-02-09T04:29:29.833Z,-8.28
2023-02-09T04:32:00.221Z,-8.20
2023-02-09T04:34:28.486Z,-8.27
2023-02-09T04:36:56.992Z,-8.28
2023-02-09T04:39:25.496Z,-8.46
2023-02-09T04:41:54.962Z,-8.42
2023-02-09T04:44:23.658Z,-8.37
2023-02-09T04:46:51.692Z,-8.31
2023-02-09T04:49:19.542Z,-8.32
2023-02-09T04:51:47.331Z,-8.32
2023-02-09T04:54:15.112Z,-8.34
2023-02-09T04:56:44.403Z,-8.53
2023-02-09T04:59:38.808Z,-8.69
2023-02-09T05:02:07.030Z,-8.62
2023-02-09T05:04:35.470Z,-8.81
2023-02-09T05:07:10.663Z,-8.45
2023-02-09T05:09:39.034Z,-8.70
2023-02-09T05:12:11.132Z,-8.68
2023-02-09T05:14:39.658Z,-8.48
2023-02-09T05:17:08.344Z,-8.59
2023-02-09T05:20:02.345Z,-8.24
2023-02-09T05:22:31.155Z,-8.27
2023-02-09T05:24:59.518Z,-8.30
2023-02-09T05:27:28.922Z,-8.12
2023-02-09T05:29:57.684Z,-8.05
2023-02-09T05:32:26.116Z,-8.44
2023-02-09T05:34:54.370Z,-8.24
2023-02-09T05:37:23.230Z,-8.18
2023-02-09T05:39:53.946Z,-8.16
2023-02-09T05:42:24.440Z,-8.17
2023-02-09T05:44:52.565Z,-8.05
2023-02-09T05:47:23.524Z,-7.99
2023-02-09T05:49:52.997Z,-8.00
2023-02-09T05:52:22.648Z,-7.73
2023-02-09T05:54:54.492Z,-7.90
2023-02-09T05:57:25.369Z,-7.72
2023-02-09T05:59:55.012Z,-7.83
2023-02-09T06:02:24.361Z,-7.72
2023-02-09T06:04:52.467Z,-7.68
2023-02-09T06:07:20.643Z,-7.42
2023-02-09T06:09:49.977Z,-7.51
2023-02-09T06:12:19.353Z,-7.42
2023-02-09T06:14:48.679Z,-7.43
2023-02-09T06:17:17.239Z,-7.29
2023-02-09T06:19:46.401Z,-7.29
2023-02-09T06:22:15.803Z,-7.29
2023-02-09T06:24:44.857Z,-7.17
2023-02-09T06:27:14.483Z,-7.13
2023-02-09T06:32:24.718Z,-7.17
2023-02-09T06:35:01.383Z,-7.00
2023-02-09T06:37:30.144Z,-6.87
2023-02-09T06:39:59.624Z,-6.78
2023-02-09T06:42:44.410Z,-6.66
2023-02-09T06:45:20.499Z,-6.78
2023-02-09T06:47:50.287Z,-6.57
2023-02-09T06:50:23.942Z,-6.41
2023-02-09T06:52:55.612Z,-6.41
2023-02-09T06:58:11.936Z,-6.07
2023-02-09T07:00:46.038Z,-5.94
2023-02-09T07:03:20.259Z,-5.64
2023-02-09T07:05:49.517Z,-5.86
2023-02-09T07:08:18.902Z,-5.71
2023-02-09T07:10:49.491Z,-5.54
2023-02-09T07:13:17.614Z,-4.99
2023-02-09T07:15:46.231Z,-5.08
2023-02-09T07:18:17.650Z,-5.01
2023-02-09T07:20:46.706Z,-5.14
2023-02-09T07:23:18.325Z,-4.88
2023-02-09T07:25:51.803Z,-4.85
2023-02-09T07:28:25.871Z,-4.93
2023-02-09T07:30:55.941Z,-4.68
2023-02-09T07:33:25.088Z,-4.36
2023-02-09T07:36:00.910Z,-4.00
2023-02-09T07:38:40.857Z,-3.86
2023-02-09T07:41:22.378Z,-3.77
2023-02-09T07:43:51.785Z,-3.52
2023-02-09T07:46:32.719Z,-3.12
2023-02-09T07:54:36.456Z,-2.99
2023-02-09T07:57:10.286Z,-3.10
2023-02-09T07:59:43.800Z,-3.39
2023-02-09T08:02:45.492Z,-2.94
2023-02-09T08:05:37.625Z,-3.06
2023-02-09T08:08:07.093Z,-2.41
2023-02-09T08:10:38.323Z,-2.41
2023-02-09T08:13:07.756Z,-2.58
2023-02-09T08:15:47.293Z,-2.41
2023-02-09T08:21:06.758Z,-2.33
2023-02-09T08:23:36.955Z,-2.10
2023-02-09T08:26:10.200Z,-1.79
2023-02-09T08:28:44.451Z,-1.69
2023-02-09T08:31:15.864Z,-1.73
2023-02-09T08:33:49.570Z,-1.51
2023-02-09T08:36:24.568Z,-1.87
2023-02-09T08:38:56.834Z,-1.96
2023-02-09T08:41:26.136Z,-1.76
2023-02-09T08:46:46.689Z,-1.67
2023-02-09T08:49:20.318Z,-1.43
2023-02-09T08:51:53.721Z,-1.62
2023-02-09T08:54:22.766Z,-0.99
2023-02-09T08:57:06.460Z,-0.93
2023-02-09T08:59:35.508Z,-0.31
2023-02-09T09:02:04.194Z,-0.55
2023-02-09T09:04:35.840Z,-0.58
2023-02-09T09:07:04.195Z,-0.46
2023-02-09T09:09:32.878Z,-0.36
2023-02-09T09:12:01.256Z,-0.07
2023-02-09T09:14:30.323Z,0.28
2023-02-09T09:16:59.313Z,0.38
2023-02-09T09:19:31.126Z,0.07
2023-02-09T09:22:06.000Z,0.02
2023-02-09T09:24:40.717Z,0.69
2023-02-09T09:27:11.597Z,0.78
2023-02-09T09:29:41.378Z,0.44
2023-02-09T09:32:16.382Z,0.74
2023-02-09T09:34:45.638Z,0.46
2023-02-09T09:37:16.149Z,0.45
2023-02-09T09:39:44.160Z,0.45
2023-02-09T09:42:27.641Z,0.75
2023-02-09T09:44:56.300Z,0.58
2023-02-09T09:47:37.431Z,0.96
2023-02-09T09:50:14.559Z,0.90
2023-02-09T09:52:52.544Z,0.88
2023-02-09T09:55:33.670Z,1.15
2023-02-09T09:58:05.440Z,1.26
2023-02-09T10:00:41.233Z,1.28
2023-02-09T10:03:21.516Z,1.00
2023-02-09T10:05:54.688Z,1.26
2023-02-09T10:08:30.682Z,1.20
2023-02-09T10:11:28.300Z,1.50
2023-02-09T10:13:58.585Z,1.45
2023-02-09T10:16:34.749Z,2.28
2023-02-09T10:19:06.292Z,1.88
2023-02-09T10:21:37.382Z,1.98
2023-02-09T10:24:25.879Z,1.78
2023-02-09T10:27:27.562Z,1.83
2023-02-09T10:29:56.246Z,2.08
2023-02-09T10:32:38.803Z,2.63
2023-02-09T10:38:41.869Z,2.49
2023-02-09T10:41:12.127Z,2.34
2023-02-09T10:43:40.200Z,2.81
2023-02-09T10:46:19.334Z,2.71
2023-02-09T10:48:48.359Z,2.58
2023-02-09T10:51:31.633Z,2.29
2023-02-09T10:54:21.716Z,2.80
2023-02-09T10:56:54.565Z,2.72
2023-02-09T10:59:27.066Z,3.18
2023-02-09T11:02:01.409Z,3.06
2023-02-09T11:04:41.364Z,3.50
2023-02-09T11:07:13.970Z,3.74
2023-02-09T11:09:51.083Z,3.52
2023-02-09T11:12:22.930Z,3.31
2023-02-09T11:14:51.463Z,3.87
2023-02-09T11:17:36.878Z,4.04
2023-02-09T11:20:24.632Z,3.71
2023-02-09T11:23:13.802Z,3.33
2023-02-09T11:29:11.170Z,4.01
2023-02-09T11:32:07.591Z,4.35
2023-02-09T11:34:47.649Z,4.11
2023-02-09T11:37:36.463Z,4.01
2023-02-09T11:40:28.811Z,3.80
2023-02-09T11:42:57.596Z,4.24
2023-02-09T11:45:39.407Z,3.92
2023-02-09T11:48:31.290Z,3.96
2023-02-09T11:51:22.712Z,3.75
2023-02-09T11:54:04.993Z,3.70
2023-02-09T11:56:41.919Z,3.98
2023-02-09T11:59:16.092Z,3.68
2023-02-09T12:01:53.642Z,3.87
2023-02-09T12:04:32.014Z,3.24
2023-02-09T12:07:11.985Z,3.66
2023-02-09T12:10:04.251Z,3.68
2023-02-09T12:12:47.959Z,3.62
2023-02-09T12:15:16.968Z,3.61
2023-02-09T12:18:14.367Z,3.32
2023-02-09T12:20:53.533Z,2.95
2023-02-09T12:23:25.151Z,3.08
2023-02-09T12:26:00.426Z,2.77
2023-02-09T12:28:29.022Z,2.95
2023-02-09T12:31:20.079Z,3.37
2023-02-09T12:33:58.854Z,3.76
2023-02-09T12:36:34.529Z,3.51
2023-02-09T12:39:25.850Z,3.16
2023-02-09T12:42:05.052Z,3.57
2023-02-09T12:44:33.494Z,3.94
2023-02-09T12:47:02.035Z,3.89
2023-02-09T12:49:30.356Z,3.99
2023-02-09T12:52:01.203Z,3.92
2023-02-09T12:54:47.598Z,4.11
2023-02-09T12:57:15.961Z,3.72
2023-02-09T12:59:50.191Z,3.57
2023-02-09T13:02:30.646Z,4.03
2023-02-09T13:05:05.408Z,4.13
2023-02-09T13:07:56.964Z,4.29
2023-02-09T13:10:33.124Z,4.56
2023-02-09T13:13:12.149Z,4.30
2023-02-09T13:16:12.084Z,5.50
2023-02-09T13:19:13.299Z,5.13
2023-02-09T13:22:01.867Z,5.50
2023-02-09T13:24:44.479Z,5.65
2023-02-09T13:27:23.302Z,5.04
2023-02-09T13:30:09.907Z,5.17
2023-02-09T13:33:04.577Z,5.51
2023-02-09T13:38:53.055Z,5.29
2023-02-09T13:41:27.943Z,5.56
2023-02-09T13:43:58.033Z,4.80
2023-02-09T13:46:36.028Z,4.19
2023-02-09T13:49:26.494Z,4.15
2023-02-09T13:52:38.784Z,3.85
2023-02-09T13:55:17.762Z,3.45
2023-02-09T14:04:14.998Z,2.35
2023-02-09T14:07:11.035Z,1.59
2023-02-09T14:09:52.841Z,1.55
2023-02-09T14:16:23.716Z,1.56
2023-02-09T14:26:22.576Z,1.07
2023-02-09T14:56:39.101Z,0.10
2023-02-09T14:59:18.608Z,0.29
2023-02-09T15:05:01.034Z,-0.29
2023-02-09T15:07:40.864Z,-0.38
2023-02-09T15:37:36.090Z,-1.26
2023-02-09T15:49:35.760Z,-1.26
2023-02-09T15:55:05.413Z,-1.70
2023-02-09T15:57:35.256Z,-1.72
2023-02-09T16:00:21.614Z,-1.69
2023-02-09T16:14:58.109Z,-1.81
2023-02-09T16:20:19.893Z,-1.80
2023-02-09T17:06:46.185Z,-2.12
2023-02-09T17:57:37.467Z,-2.71
2023-02-09T18:03:19.815Z,-2.77
2023-02-09T18:12:00.169Z,-2.74
2023-02-09T18:14:35.546Z,-2.77
2023-02-09T18:20:11.833Z,-2.90
2023-02-09T18:25:59.055Z,-2.87
2023-02-09T18:37:20.367Z,-3.28
2023-02-09T18:48:56.587Z,-3.42
2023-02-09T18:57:23.555Z,-3.44
2023-02-09T19:03:31.251Z,-3.49
2023-02-09T19:06:04.788Z,-3.53
2023-02-09T19:17:37.651Z,-3.61
2023-02-09T19:20:29.142Z,-3.69
2023-02-09T19:38:01.316Z,-3.74
2023-02-09T19:40:44.954Z,-3.93
2023-02-09T19:49:20.952Z,-3.92
2023-02-09T19:58:18.758Z,-3.93
2023-02-09T20:33:19.538Z,-4.13
2023-02-09T20:35:48.343Z,-4.19
2023-02-09T20:38:25.819Z,-4.18
2023-02-09T20:41:03.905Z,-4.13
2023-02-09T20:43:52.564Z,-4.21
2023-02-09T20:46:47.247Z,-4.33
2023-02-09T20:49:19.731Z,-4.44
2023-02-09T21:27:11.498Z,-4.76
2023-02-09T21:29:45.982Z,-4.78
2023-02-09T21:32:21.145Z,-4.69
2023-02-09T21:34:58.169Z,-4.75
2023-02-09T21:37:40.737Z,-4.66
2023-02-09T21:40:16.877Z,-4.72
2023-02-09T21:42:45.769Z,-4.76
2023-02-09T21:45:14.709Z,-4.59
2023-02-09T21:50:27.834Z,-4.84
2023-02-09T21:52:57.605Z,-4.76
2023-02-09T21:55:26.462Z,-4.67
2023-02-09T21:57:57.139Z,-4.63
2023-02-09T22:00:25.626Z,-4.70
2023-02-09T22:02:55.318Z,-4.63
2023-02-09T22:05:24.554Z,-4.72
2023-02-09T22:07:53.932Z,-4.74
2023-02-09T22:10:22.959Z,-4.85
2023-02-09T22:12:52.111Z,-4.84
2023-02-09T22:15:23.219Z,-4.81
2023-02-09T22:17:58.194Z,-4.86
2023-02-09T22:20:33.681Z,-4.89
2023-02-09T22:23:03.097Z,-4.93
2023-02-09T22:25:45.504Z,-4.82
2023-02-09T22:28:16.883Z,-4.74
2023-02-09T22:30:49.021Z,-4.87
2023-02-09T22:36:18.677Z,-5.06
2023-02-09T22:38:46.770Z,-5.06
2023-02-09T22:41:27.039Z,-5.02
2023-02-09T22:44:08.059Z,-5.00
2023-02-09T22:46:41.396Z,-5.02
2023-02-09T22:49:14.859Z,-5.03
2023-02-09T22:51:49.734Z,-4.99
2023-02-09T22:54:21.917Z,-5.05
2023-02-09T22:56:50.962Z,-5.01
2023-02-09T22:59:20.805Z,-5.08
2023-02-09T23:01:51.642Z,-4.79
2023-02-09T23:04:21.875Z,-4.97
2023-02-09T23:06:51.765Z,-5.13
2023-02-09T23:09:21.937Z,-5.09
2023-02-09T23:11:52.649Z,-4.90
2023-02-09T23:14:21.713Z,-4.88
2023-02-09T23:16:52.929Z,-5.19
2023-02-09T23:19:24.949Z,-5.33
2023-02-09T23:22:05.232Z,-5.45
2023-02-09T23:24:47.387Z,-5.47
2023-02-09T23:27:31.749Z,-5.46
2023-02-09T23:30:04.150Z,-5.28
2023-02-09T23:32:35.732Z,-5.18
2023-02-09T23:35:06.331Z,-5.46
2023-02-09T23:37:50.515Z,-5.51
2023-02-09T23:43:07.998Z,-5.56
2023-02-09T23:45:41.695Z,-5.51
2023-02-09T23:48:11.467Z,-5.26
2023-02-09T23:50:41.310Z,-5.14
2023-02-09T23:53:14.961Z,-5.34
2023-02-09T23:55:52.070Z,-5.41
2023-02-09T23:58:26.589Z,-5.35
